Time;durP1;ratioP1;P1;durP2;ratioP2;P2;SDS_P1;SDS_P2;PMS_P1;PMS_P2;Temp;Humidity;BMP_temperature;BMP_pressure;BME280_temperature;BME280_humidity;BME280_pressure;Samples;Min_cycle;Max_cycle;Signal;HPM_P1;HPM_P2
2023/06/30 00:01:12;;;;;;;;;;;;;;;;;;5078916;28;4969;-61
2023/06/30 00:03:39;;;;;;;;;;;;;;;;;;5087078;28;5116;-61
2023/06/30 00:06:04;;;;;;;;;;;;;;;;;;5087822;28;4590;-61
2023/06/30 00:08:29;;;;;;;;;;;;;;;;;;5089973;28;5019;-61
2023/06/30 00:10:55;;;;;;;;;;;;;;;;;;5091180;28;1159;-60
2023/06/30 00:13:20;;;;;;;;;;;;;;;;;;5087758;28;5081;-61
2023/06/30 00:15:45;;;;;;;;;;;;;;;;;;5081879;28;5087;-61
2023/06/30 00:18:11;;;;;;;;;;;;;;;;;;5090333;28;4883;-61
2023/06/30 00:20:36;;;;;;;;;;;;;;;;;;5071880;28;4616;-61
2023/06/30 00:23:01;;;;;;;;;;;;;;;;;;5081853;28;4631;-62
2023/06/30 00:25:26;;;;;;;;;;;;;;;;;;5087694;28;1076;-61
2023/06/30 00:27:52;;;;;;;;;;;;;;;;;;5074306;28;4429;-61
2023/06/30 00:30:17;;;;;;;;;;;;;;;;;;5079757;28;4438;-61
2023/06/30 00:32:42;;;;;;;;;;;;;;;;;;5089999;28;5043;-61
2023/06/30 00:35:07;;;;;;;;;;;;;;;;;;5086917;28;4906;-61
2023/06/30 00:37:33;;;;;;;;;;;;;;;;;;5089822;28;1139;-61
2023/06/30 00:39:58;;;;;;;;;;;;;;;;;;5089494;28;4904;-61
2023/06/30 00:42:23;;;;;;;;;;;;;;;;;;5064020;28;4473;-61
2023/06/30 00:44:49;;;;;;;;;;;;;;;;;;5089856;28;5043;-61
2023/06/30 00:47:14;;;;;;;;;;;;;;;;;;5089901;28;5067;-61
2023/06/30 00:49:39;;;;;;;;;;;;;;;;;;5090823;28;1148;-61
2023/06/30 00:52:04;;;;;;;;;;;;;;;;;;5071441;28;4464;-62
2023/06/30 00:54:30;;;;;;;;;;;;;;;;;;5089469;28;5079;-61
2023/06/30 00:56:57;;;;;;;;;;;;;;;;;;5083015;28;4520;-61
2023/06/30 00:59:22;;;;;;;;;;;;;;;;;;5089421;28;4931;-62
2023/06/30 01:01:56;;;;;;;;;;;;;;;;;;5088070;28;1070;-61
2023/06/30 01:04:31;;;;;;;;;;;;;;;;;;5049354;28;5085;-60
2023/06/30 01:07:10;;;;;;;;;;;;;;;;;;5070189;28;5487;-61
2023/06/30 01:09:38;;;;;;;;;;;;;;;;;;5101049;28;5002;-61
2023/06/30 01:12:04;;;;;;;;;;;;;;;;;;5080783;28;5081;-61
2023/06/30 01:14:29;;;;;;;;;;;;;;;;;;5070931;28;5143;-61
2023/06/30 01:16:55;;;;;;;;;;;;;;;;;;5071615;28;1261;-61
2023/06/30 01:19:25;;;;;;;;;;;;;;;;;;5070268;28;4418;-61
2023/06/30 01:21:52;;;;;;;;;;;;;;;;;;5087840;28;4483;-61
2023/06/30 01:24:17;;;;;;;;;;;;;;;;;;5061840;28;4716;-61
2023/06/30 01:26:42;;;;;;;;;;;;;;;;;;5067602;28;4846;-62
2023/06/30 01:29:08;;;;;;;;;;;;;;;;;;5062716;28;4509;-61
2023/06/30 01:31:33;;;;;;;;;;;;;;;;;;5095583;28;2118;-61
2023/06/30 01:33:59;;;;;;;;;;;;;;;;;;5081893;28;4978;-62
2023/06/30 01:36:24;;;;;;;;;;;;;;;;;;5082984;28;5040;-61
2023/06/30 01:38:49;;;;;;;;;;;;;;;;;;5078468;28;4622;-61
2023/06/30 01:41:14;;;;;;;;;;;;;;;;;;5084986;28;4770;-62
2023/06/30 01:43:40;;;;;;;;;;;;;;;;;;5060950;28;3244;-61
2023/06/30 01:46:05;;;;;;;;;;;;;;;;;;5081729;28;4926;-62
2023/06/30 01:48:31;;;;;;;;;;;;;;;;;;5050917;28;5114;-62
2023/06/30 01:50:56;;;;;;;;;;;;;;;;;;5059578;28;4919;-62
2023/06/30 01:53:21;;;;;;;;;;;;;;;;;;5061687;28;4899;-62
2023/06/30 01:55:47;;;;;;;;;;;;;;;;;;5083232;28;3152;-62
2023/06/30 01:58:12;;;;;;;;;;;;;;;;;;5083158;28;4669;-62
2023/06/30 02:00:38;;;;;;;;;;;;;;;;;;5080046;28;5346;-62
2023/06/30 02:03:03;;;;;;;;;;;;;;;;;;5078517;28;5080;-62
2023/06/30 02:05:28;;;;;;;;;;;;;;;;;;5079451;28;4540;-62
2023/06/30 02:07:53;;;;;;;;;;;;;;;;;;5078051;28;3230;-63
2023/06/30 02:10:19;;;;;;;;;;;;;;;;;;5085054;28;4963;-62
2023/06/30 02:12:44;;;;;;;;;;;;;;;;;;5081731;28;4470;-62
2023/06/30 02:15:09;;;;;;;;;;;;;;;;;;5076935;28;4498;-63
2023/06/30 02:17:35;;;;;;;;;;;;;;;;;;5087034;28;4935;-62
2023/06/30 02:20:00;;;;;;;;;;;;;;;;;;5080314;28;5519;-63
2023/06/30 02:22:26;;;;;;;;;;;;;;;;;;5102256;28;3249;-62
2023/06/30 02:24:53;;;;;;;;;;;;;;;;;;5064005;28;5051;-62
2023/06/30 02:27:19;;;;;;;;;;;;;;;;;;5063391;28;4637;-62
2023/06/30 02:29:44;;;;;;;;;;;;;;;;;;5082492;28;5021;-62
2023/06/30 02:32:09;;;;;;;;;;;;;;;;;;5049727;28;4508;-62
2023/06/30 02:34:34;;;;;;;;;;;;;;;;;;5070695;28;4947;-62
2023/06/30 02:37:00;;;;;;;;;;;;;;;;;;5077569;28;5047;-62
2023/06/30 02:39:26;;;;;;;;;;;;;;;;;;5080088;28;5096;-62
2023/06/30 02:41:51;;;;;;;;;;;;;;;;;;5068829;28;5024;-62
2023/06/30 02:44:16;;;;;;;;;;;;;;;;;;5080654;28;5022;-62
2023/06/30 02:46:42;;;;;;;;;;;;;;;;;;5087195;28;1092;-62
2023/06/30 02:49:07;;;;;;;;;;;;;;;;;;5078598;28;4427;-62
2023/06/30 02:51:32;;;;;;;;;;;;;;;;;;5076332;28;5058;-62
2023/06/30 02:53:57;;;;;;;;;;;;;;;;;;5081582;28;4857;-62
2023/06/30 02:56:23;;;;;;;;;;;;;;;;;;5083143;28;4454;-61
2023/06/30 02:58:48;;;;;;;;;;;;;;;;;;5088197;28;2030;-62
2023/06/30 03:01:13;;;;;;;;;;;;;;;;;;5085116;28;4884;-62
2023/06/30 03:03:38;;;;;;;;;;;;;;;;;;5085585;28;5055;-62
2023/06/30 03:06:04;;;;;;;;;;;;;;;;;;5087711;28;4515;-62
2023/06/30 03:08:30;;;;;;;;;;;;;;;;;;5087432;28;4922;-62
2023/06/30 03:10:55;;;;;;;;;;;;;;;;;;5088311;28;1116;-62
2023/06/30 03:13:20;;;;;;;;;;;;;;;;;;5087340;28;5001;-62
2023/06/30 03:15:45;;;;;;;;;;;;;;;;;;5086202;28;4983;-62
2023/06/30 03:18:11;;;;;;;;;;;;;;;;;;5078762;28;4622;-61
2023/06/30 03:20:36;;;;;;;;;;;;;;;;;;5085822;28;4628;-62
2023/06/30 03:23:01;;;;;;;;;;;;;;;;;;5087602;28;4544;-62
2023/06/30 03:25:27;;;;;;;;;;;;;;;;;;5087867;28;1148;-61
2023/06/30 03:27:52;;;;;;;;;;;;;;;;;;5066017;28;5021;-62
2023/06/30 03:30:17;;;;;;;;;;;;;;;;;;5083530;28;4889;-61
2023/06/30 03:32:42;;;;;;;;;;;;;;;;;;5084740;28;5104;-61
2023/06/30 03:35:08;;;;;;;;;;;;;;;;;;5087221;28;5055;-61
2023/06/30 03:37:33;;;;;;;;;;;;;;;;;;5099859;28;1063;-61
2023/06/30 03:40:00;;;;;;;;;;;;;;;;;;5090969;28;4670;-61
2023/06/30 03:42:25;;;;;;;;;;;;;;;;;;5090932;28;5002;-61
2023/06/30 03:44:51;;;;;;;;;;;;;;;;;;5083283;28;5068;-62
2023/06/30 03:47:16;;;;;;;;;;;;;;;;;;5090534;28;5001;-62
2023/06/30 03:49:41;;;;;;;;;;;;;;;;;;5091542;28;1161;-62
2023/06/30 03:52:07;;;;;;;;;;;;;;;;;;5088772;28;4979;-62
2023/06/30 03:54:32;;;;;;;;;;;;;;;;;;5090064;28;5350;-60
2023/06/30 03:56:57;;;;;;;;;;;;;;;;;;5090967;28;5091;-61
2023/06/30 03:59:23;;;;;;;;;;;;;;;;;;5064437;28;5052;-62
2023/06/30 04:01:48;;;;;;;;;;;;;;;;;;5097621;27;1722;-61
2023/06/30 04:04:13;;;;;;;;;;;;;;;;;;5086404;28;4771;-62
2023/06/30 04:06:39;;;;;;;;;;;;;;;;;;5090605;28;5018;-60
2023/06/30 04:09:05;;;;;;;;;;;;;;;;;;5085611;28;5061;-61
2023/06/30 04:11:30;;;;;;;;;;;;;;;;;;5084491;28;4472;-61
2023/06/30 04:13:57;;;;;;;;;;;;;;;;;;5083029;28;3045;-61
2023/06/30 04:16:22;;;;;;;;;;;;;;;;;;5083324;28;4384;-61
2023/06/30 04:18:47;;;;;;;;;;;;;;;;;;5088503;28;4585;-61
2023/06/30 04:21:12;;;;;;;;;;;;;;;;;;5090306;28;4715;-61
2023/06/30 04:23:38;;;;;;;;;;;;;;;;;;5087834;28;4570;-61
2023/06/30 04:26:04;;;;;;;;;;;;;;;;;;5082287;28;5329;-61
2023/06/30 04:28:30;;;;;;;;;;;;;;;;;;5082875;28;1344;-61
2023/06/30 04:30:55;;;;;;;;;;;;;;;;;;5065759;28;5055;-61
2023/06/30 04:33:21;;;;;;;;;;;;;;;;;;5089453;28;4990;-61
2023/06/30 04:35:46;;;;;;;;;;;;;;;;;;5086802;28;5054;-62
2023/06/30 04:38:11;;;;;;;;;;;;;;;;;;5089810;28;4928;-62
2023/06/30 04:40:36;;;;;;;;;;;;;;;;;;5088972;28;1222;-61
2023/06/30 04:43:02;;;;;;;;;;;;;;;;;;5086177;28;4588;-61
2023/06/30 04:45:28;;;;;;;;;;;;;;;;;;5089646;28;4608;-61
2023/06/30 04:47:53;;;;;;;;;;;;;;;;;;5089067;28;4863;-61
2023/06/30 04:50:18;;;;;;;;;;;;;;;;;;5089432;28;5190;-61
2023/06/30 04:52:43;;;;;;;;;;;;;;;;;;5090199;28;1977;-61
2023/06/30 04:55:09;;;;;;;;;;;;;;;;;;5083821;28;4454;-61
2023/06/30 04:57:34;;;;;;;;;;;;;;;;;;5104769;28;4594;-62
2023/06/30 04:59:59;;;;;;;;;;;;;;;;;;5087472;28;4630;-61
2023/06/30 05:02:25;;;;;;;;;;;;;;;;;;5089114;28;5000;-62
2023/06/30 05:04:51;;;;;;;;;;;;;;;;;;5084137;28;1124;-61
2023/06/30 05:07:16;;;;;;;;;;;;;;;;;;5089556;28;4918;-62
2023/06/30 05:09:41;;;;;;;;;;;;;;;;;;5078459;28;4983;-61
2023/06/30 05:12:07;;;;;;;;;;;;;;;;;;5089259;28;4690;-61
2023/06/30 05:14:32;;;;;;;;;;;;;;;;;;5089108;28;5153;-61
2023/06/30 05:16:57;;;;;;;;;;;;;;;;;;5089560;28;1156;-61
2023/06/30 05:19:23;;;;;;;;;;;;;;;;;;5082666;28;4802;-61
2023/06/30 05:21:50;;;;;;;;;;;;;;;;;;5085445;28;5016;-61
2023/06/30 05:24:15;;;;;;;;;;;;;;;;;;5075842;28;4718;-62
2023/06/30 05:26:41;;;;;;;;;;;;;;;;;;5076440;28;5614;-62
2023/06/30 05:29:06;;;;;;;;;;;;;;;;;;5080562;28;5025;-61
2023/06/30 05:31:31;;;;;;;;;;;;;;;;;;5081545;28;3505;-61
2023/06/30 05:33:57;;;;;;;;;;;;;;;;;;5090613;28;5035;-61
2023/06/30 05:36:22;;;;;;;;;;;;;;;;;;5087815;28;4537;-61
2023/06/30 05:38:48;;;;;;;;;;;;;;;;;;5086272;28;4845;-61
2023/06/30 05:41:13;;;;;;;;;;;;;;;;;;5088147;28;4550;-62
2023/06/30 05:43:40;;;;;;;;;;;;;;;;;;5082682;28;3248;-62
2023/06/30 05:46:05;;;;;;;;;;;;;;;;;;5079259;28;4849;-63
2023/06/30 05:48:32;;;;;;;;;;;;;;;;;;5078643;28;4992;-63
2023/06/30 05:50:57;;;;;;;;;;;;;;;;;;5079370;28;4540;-63
2023/06/30 05:53:22;;;;;;;;;;;;;;;;;;5078231;28;5012;-63
2023/06/30 05:55:48;;;;;;;;;;;;;;;;;;5078591;28;3319;-61
2023/06/30 05:58:13;;;;;;;;;;;;;;;;;;5079394;28;4475;-62
2023/06/30 06:00:38;;;;;;;;;;;;;;;;;;5082107;28;5054;-61
2023/06/30 06:03:03;;;;;;;;;;;;;;;;;;5086648;28;4645;-62
2023/06/30 06:05:29;;;;;;;;;;;;;;;;;;5055138;28;5072;-62
2023/06/30 06:07:54;;;;;;;;;;;;;;;;;;5083568;28;1151;-61
2023/06/30 06:10:19;;;;;;;;;;;;;;;;;;5087999;28;5040;-62
2023/06/30 06:12:44;;;;;;;;;;;;;;;;;;5088216;28;4968;-62
2023/06/30 06:15:10;;;;;;;;;;;;;;;;;;5062569;28;5017;-61
2023/06/30 06:17:35;;;;;;;;;;;;;;;;;;5089495;28;5187;-61
2023/06/30 06:20:00;;;;;;;;;;;;;;;;;;5078085;28;5109;-61
2023/06/30 06:22:25;;;;;;;;;;;;;;;;;;5083636;28;1211;-61
2023/06/30 06:24:51;;;;;;;;;;;;;;;;;;5085871;28;4426;-61
2023/06/30 06:27:17;;;;;;;;;;;;;;;;;;5078287;28;4443;-62
2023/06/30 06:29:42;;;;;;;;;;;;;;;;;;5078721;28;5072;-62
2023/06/30 06:32:08;;;;;;;;;;;;;;;;;;5078623;28;4554;-62
2023/06/30 06:34:34;;;;;;;;;;;;;;;;;;5091438;28;4957;-61
2023/06/30 06:37:00;;;;;;;;;;;;;;;;;;5087495;28;4556;-62
2023/06/30 06:39:25;;;;;;;;;;;;;;;;;;5087737;28;4461;-62
2023/06/30 06:41:51;;;;;;;;;;;;;;;;;;5094966;28;4967;-61
2023/06/30 06:44:16;;;;;;;;;;;;;;;;;;5087698;28;4748;-62
2023/06/30 06:46:43;;;;;;;;;;;;;;;;;;5091563;28;1214;-61
2023/06/30 06:49:08;;;;;;;;;;;;;;;;;;5082036;28;5083;-61
2023/06/30 06:51:33;;;;;;;;;;;;;;;;;;5080538;28;4911;-61
2023/06/30 06:53:58;;;;;;;;;;;;;;;;;;5087679;28;4485;-61
2023/06/30 06:56:24;;;;;;;;;;;;;;;;;;5087434;28;5100;-61
2023/06/30 06:58:49;;;;;;;;;;;;;;;;;;5088404;28;1225;-61
2023/06/30 07:01:14;;;;;;;;;;;;;;;;;;5079742;28;4834;-63
2023/06/30 07:03:39;;;;;;;;;;;;;;;;;;5085042;28;4953;-62
2023/06/30 07:06:07;;;;;;;;;;;;;;;;;;5091420;28;4474;-62
2023/06/30 07:08:35;;;;;;;;;;;;;;;;;;5073698;28;4456;-62
2023/06/30 07:11:00;;;;;;;;;;;;;;;;;;5091692;28;4963;-63
2023/06/30 07:13:25;;;;;;;;;;;;;;;;;;5091887;28;1910;-62
2023/06/30 07:15:51;;;;;;;;;;;;;;;;;;5081567;28;4955;-63
2023/06/30 07:18:19;;;;;;;;;;;;;;;;;;5091500;28;5039;-62
2023/06/30 07:20:45;;;;;;;;;;;;;;;;;;5072356;28;5054;-62
2023/06/30 07:23:11;;;;;;;;;;;;;;;;;;5072662;28;4935;-62
2023/06/30 07:25:36;;;;;;;;;;;;;;;;;;5097048;28;1168;-63
2023/06/30 07:28:01;;;;;;;;;;;;;;;;;;5086381;28;5014;-62
2023/06/30 07:30:27;;;;;;;;;;;;;;;;;;5080134;28;5296;-62
2023/06/30 07:32:53;;;;;;;;;;;;;;;;;;5082184;28;5159;-62
2023/06/30 07:35:18;;;;;;;;;;;;;;;;;;5085290;28;5114;-62
2023/06/30 07:37:44;;;;;;;;;;;;;;;;;;5091463;28;2245;-62
2023/06/30 07:40:10;;;;;;;;;;;;;;;;;;5089884;28;4451;-62
2023/06/30 07:42:35;;;;;;;;;;;;;;;;;;5092680;28;4969;-62
2023/06/30 07:45:00;;;;;;;;;;;;;;;;;;5078593;28;4484;-63
2023/06/30 07:47:26;;;;;;;;;;;;;;;;;;5089374;28;4867;-62
2023/06/30 07:49:51;;;;;;;;;;;;;;;;;;5046261;28;3260;-62
2023/06/30 07:52:16;;;;;;;;;;;;;;;;;;5036321;28;4440;-61
2023/06/30 07:54:43;;;;;;;;;;;;;;;;;;5043920;28;4650;-63
2023/06/30 07:57:09;;;;;;;;;;;;;;;;;;5037648;28;4925;-65
2023/06/30 07:59:35;;;;;;;;;;;;;;;;;;5034994;28;4906;-64
2023/06/30 08:02:00;;;;;;;;;;;;;;;;;;5045034;28;5099;-64
2023/06/30 08:04:26;;;;;;;;;;;;;;;;;;5059628;28;3745;-62
2023/06/30 08:06:51;;;;;;;;;;;;;;;;;;5039176;28;5039;-62
2023/06/30 08:09:16;;;;;;;;;;;;;;;;;;5058625;28;4519;-62
2023/06/30 08:11:41;;;;;;;;;;;;;;;;;;5058541;28;6044;-61
2023/06/30 08:14:07;;;;;;;;;;;;;;;;;;5053087;28;4602;-62
2023/06/30 08:16:32;;;;;;;;;;;;;;;;;;5064103;28;3214;-60
2023/06/30 08:18:57;;;;;;;;;;;;;;;;;;5056828;28;5159;-61
2023/06/30 08:21:23;;;;;;;;;;;;;;;;;;5063280;28;4860;-61
2023/06/30 08:23:48;;;;;;;;;;;;;;;;;;5048221;28;5207;-61
2023/06/30 08:26:14;;;;;;;;;;;;;;;;;;5056875;28;4994;-60
2023/06/30 08:28:39;;;;;;;;;;;;;;;;;;5057621;28;1220;-61
2023/06/30 08:31:05;;;;;;;;;;;;;;;;;;5046608;28;4906;-60
2023/06/30 08:33:30;;;;;;;;;;;;;;;;;;5067064;28;4691;-61
2023/06/30 08:35:55;;;;;;;;;;;;;;;;;;5057185;28;5222;-61
2023/06/30 08:38:20;;;;;;;;;;;;;;;;;;5062701;28;4513;-61
2023/06/30 08:40:46;;;;;;;;;;;;;;;;;;5036126;28;1176;-60
2023/06/30 08:43:11;;;;;;;;;;;;;;;;;;5070760;28;5025;-60
2023/06/30 08:45:36;;;;;;;;;;;;;;;;;;5056149;28;5023;-59
2023/06/30 08:48:05;;;;;;;;;;;;;;;;;;5043984;28;5155;-60
2023/06/30 08:50:33;;;;;;;;;;;;;;;;;;5059769;28;5152;-60
2023/06/30 08:52:59;;;;;;;;;;;;;;;;;;5063849;28;1980;-60
2023/06/30 08:55:24;;;;;;;;;;;;;;;;;;5040265;28;4804;-59
2023/06/30 08:57:49;;;;;;;;;;;;;;;;;;5043419;28;4497;-60
2023/06/30 09:00:14;;;;;;;;;;;;;;;;;;5057089;28;5087;-60
2023/06/30 09:02:40;;;;;;;;;;;;;;;;;;5064789;28;4988;-60
2023/06/30 09:05:05;;;;;;;;;;;;;;;;;;5046433;28;4628;-60
2023/06/30 09:07:32;;;;;;;;;;;;;;;;;;5040028;28;1105;-59
2023/06/30 09:09:58;;;;;;;;;;;;;;;;;;5062313;28;4993;-60
2023/06/30 09:12:24;;;;;;;;;;;;;;;;;;5034250;28;5956;-59
2023/06/30 09:14:49;;;;;;;;;;;;;;;;;;5063653;28;4644;-59
2023/06/30 09:17:14;;;;;;;;;;;;;;;;;;5055325;28;4637;-59
2023/06/30 09:19:40;;;;;;;;;;;;;;;;;;5049572;28;1532;-59
2023/06/30 09:22:05;;;;;;;;;;;;;;;;;;5058562;28;4643;-59
2023/06/30 09:24:30;;;;;;;;;;;;;;;;;;5060923;28;5154;-59
2023/06/30 09:26:56;;;;;;;;;;;;;;;;;;5064894;28;5601;-60
2023/06/30 09:29:21;;;;;;;;;;;;;;;;;;5064855;28;4470;-59
2023/06/30 09:31:49;;;;;;;;;;;;;;;;;;5046480;28;2483;-59
2023/06/30 09:34:14;;;;;;;;;;;;;;;;;;5064805;28;5098;-59
2023/06/30 09:36:49;;;;;;;;;;;;;;;;;;5059141;28;4613;-60
2023/06/30 09:39:14;;;;;;;;;;;;;;;;;;5062799;28;4815;-59
2023/06/30 09:41:43;;;;;;;;;;;;;;;;;;5060381;28;4429;-60
2023/06/30 09:44:11;;;;;;;;;;;;;;;;;;5057420;28;5042;-59
2023/06/30 09:46:44;;;;;;;;;;;;;;;;;;5067647;28;1181;-59
2023/06/30 09:49:09;;;;;;;;;;;;;;;;;;5073156;28;5146;-59
2023/06/30 09:51:35;;;;;;;;;;;;;;;;;;5078953;28;5096;-59
2023/06/30 09:54:00;;;;;;;;;;;;;;;;;;5075096;28;4492;-59
2023/06/30 09:56:26;;;;;;;;;;;;;;;;;;5085701;28;5849;-59
2023/06/30 09:58:58;;;;;;;;;;;;;;;;;;5064143;28;1266;-59
2023/06/30 10:01:23;;;;;;;;;;;;;;;;;;5080049;28;4404;-60
2023/06/30 10:03:49;;;;;;;;;;;;;;;;;;5072196;28;5030;-60
2023/06/30 10:06:17;;;;;;;;;;;;;;;;;;5078683;28;4459;-62
2023/06/30 10:08:44;;;;;;;;;;;;;;;;;;5077372;28;5000;-62
2023/06/30 10:11:09;;;;;;;;;;;;;;;;;;5083779;28;4503;-62
2023/06/30 10:13:34;;;;;;;;;;;;;;;;;;5069321;28;1968;-62
2023/06/30 10:16:00;;;;;;;;;;;;;;;;;;5069119;28;5051;-62
2023/06/30 10:18:25;;;;;;;;;;;;;;;;;;5067619;28;4861;-62
2023/06/30 10:20:50;;;;;;;;;;;;;;;;;;5083804;28;5075;-62
2023/06/30 10:23:19;;;;;;;;;;;;;;;;;;5066917;28;5072;-62
2023/06/30 10:25:44;;;;;;;;;;;;;;;;;;5084925;28;1139;-62
2023/06/30 10:28:10;;;;;;;;;;;;;;;;;;5080341;28;5028;-62
2023/06/30 10:30:35;;;;;;;;;;;;;;;;;;5076479;28;5902;-61
2023/06/30 10:33:01;;;;;;;;;;;;;;;;;;5077956;28;5145;-61
2023/06/30 10:35:26;;;;;;;;;;;;;;;;;;5085741;28;5121;-62
2023/06/30 10:37:52;;;;;;;;;;;;;;;;;;5060710;28;1113;-61
2023/06/30 10:40:27;;;;;;;;;;;;;;;;;;5065776;28;4960;-60
2023/06/30 10:42:56;;;;;;;;;;;;;;;;;;5096072;28;4593;-61
2023/06/30 10:45:28;;;;;;;;;;;;;;;;;;5079972;28;5055;-61
2023/06/30 10:47:53;;;;;;;;;;;;;;;;;;5075552;28;4964;-61
2023/06/30 10:50:18;;;;;;;;;;;;;;;;;;5083334;28;5233;-62
2023/06/30 10:52:53;;;;;;;;;;;;;;;;;;5067660;28;1973;-62
2023/06/30 10:55:19;;;;;;;;;;;;;;;;;;5078866;28;4787;-61
2023/06/30 10:57:46;;;;;;;;;;;;;;;;;;5084801;28;4727;-61
2023/06/30 11:00:14;;;;;;;;;;;;;;;;;;5067947;28;5146;-61
2023/06/30 11:02:49;;;;;;;;;;;;;;;;;;5081707;28;4442;-61
2023/06/30 11:05:18;;;;;;;;;;;;;;;;;;5079580;28;4975;-62
2023/06/30 11:07:45;;;;;;;;;;;;;;;;;;5088660;28;1065;-64
2023/06/30 11:10:10;;;;;;;;;;;;;;;;;;5081137;28;4649;-61
2023/06/30 11:12:52;;;;;;;;;;;;;;;;;;5078441;28;5258;-62
2023/06/30 11:15:24;;;;;;;;;;;;;;;;;;5076710;28;4503;-61
2023/06/30 11:17:52;;;;;;;;;;;;;;;;;;5084047;28;4502;-58
2023/06/30 11:20:17;;;;;;;;;;;;;;;;;;5080317;28;5085;-62
2023/06/30 11:22:54;;;;;;;;;;;;;;;;;;5067755;28;1101;-59
2023/06/30 11:25:19;;;;;;;;;;;;;;;;;;5081956;28;4776;-64
2023/06/30 11:27:44;;;;;;;;;;;;;;;;;;5074254;28;5110;-65
2023/06/30 11:30:09;;;;;;;;;;;;;;;;;;5072826;28;4837;-62
2023/06/30 11:32:38;;;;;;;;;;;;;;;;;;5065563;28;4772;-72
2023/06/30 11:35:07;;;;;;;;;;;;;;;;;;5069787;28;5110;-70
2023/06/30 11:37:36;;;;;;;;;;;;;;;;;;5079328;28;3215;-71
2023/06/30 11:40:01;;;;;;;;;;;;;;;;;;5086018;28;4460;-68
2023/06/30 11:42:26;;;;;;;;;;;;;;;;;;5077342;28;4706;-71
2023/06/30 11:44:52;;;;;;;;;;;;;;;;;;5072631;28;4515;-76
2023/06/30 11:47:17;;;;;;;;;;;;;;;;;;5078028;28;5128;-70
2023/06/30 11:49:42;;;;;;;;;;;;;;;;;;5085975;28;3339;-68
2023/06/30 11:52:08;;;;;;;;;;;;;;;;;;5079953;28;4996;-69
2023/06/30 11:54:33;;;;;;;;;;;;;;;;;;5070699;28;4491;-67
2023/06/30 11:56:59;;;;;;;;;;;;;;;;;;5083023;28;5219;-72
2023/06/30 11:59:27;;;;;;;;;;;;;;;;;;5087378;28;5033;-62
2023/06/30 12:01:52;;;;;;;;;;;;;;;;;;5080675;28;3204;-64
2023/06/30 12:04:18;;;;;;;;;;;;;;;;;;5051177;28;4752;-64
2023/06/30 12:06:43;;;;;;;;;;;;;;;;;;5089245;28;5286;-64
2023/06/30 12:09:09;;;;;;;;;;;;;;;;;;5070868;28;5062;-61
2023/06/30 12:11:34;;;;;;;;;;;;;;;;;;5063461;28;5122;-61
2023/06/30 12:14:00;;;;;;;;;;;;;;;;;;5088390;28;1945;-62
2023/06/30 12:16:26;;;;;;;;;;;;;;;;;;5068130;28;4701;-62
2023/06/30 12:18:53;;;;;;;;;;;;;;;;;;5085189;28;5076;-62
2023/06/30 12:21:18;;;;;;;;;;;;;;;;;;5077395;28;4509;-62
2023/06/30 12:23:43;;;;;;;;;;;;;;;;;;5088541;28;5061;-61
2023/06/30 12:26:10;;;;;;;;;;;;;;;;;;5056142;28;5227;-61
2023/06/30 12:28:35;;;;;;;;;;;;;;;;;;5085782;28;1173;-61
2023/06/30 12:31:00;;;;;;;;;;;;;;;;;;5083639;28;5017;-62
2023/06/30 12:33:28;;;;;;;;;;;;;;;;;;5070308;28;4483;-62
2023/06/30 12:35:53;;;;;;;;;;;;;;;;;;5086791;28;5150;-61
2023/06/30 12:38:18;;;;;;;;;;;;;;;;;;5086165;28;4444;-61
2023/06/30 12:40:44;;;;;;;;;;;;;;;;;;5079890;28;3261;-61
2023/06/30 12:43:09;;;;;;;;;;;;;;;;;;5085512;28;4632;-63
2023/06/30 12:45:34;;;;;;;;;;;;;;;;;;5081333;28;5514;-62
2023/06/30 12:47:59;;;;;;;;;;;;;;;;;;5062141;28;5078;-62
2023/06/30 12:50:25;;;;;;;;;;;;;;;;;;5085850;28;4850;-62
2023/06/30 12:52:51;;;;;;;;;;;;;;;;;;5081116;28;1917;-61
2023/06/30 12:55:17;;;;;;;;;;;;;;;;;;5087880;28;4978;-62
2023/06/30 12:57:42;;;;;;;;;;;;;;;;;;5062230;28;5073;-62
2023/06/30 13:00:09;;;;;;;;;;;;;;;;;;5078190;28;4913;-62
2023/06/30 13:02:34;;;;;;;;;;;;;;;;;;5065969;28;4460;-62
2023/06/30 13:04:59;;;;;;;;;;;;;;;;;;5067160;28;1551;-62
2023/06/30 13:07:25;;;;;;;;;;;;;;;;;;5081736;28;4568;-61
2023/06/30 13:09:50;;;;;;;;;;;;;;;;;;5087392;28;4836;-62
2023/06/30 13:12:16;;;;;;;;;;;;;;;;;;5080226;28;5113;-62
2023/06/30 13:14:41;;;;;;;;;;;;;;;;;;5087930;28;5708;-62
2023/06/30 13:17:07;;;;;;;;;;;;;;;;;;5086508;28;5150;-63
2023/06/30 13:19:32;;;;;;;;;;;;;;;;;;5084943;28;1013;-60
2023/06/30 13:21:58;;;;;;;;;;;;;;;;;;5079164;28;5077;-62
2023/06/30 13:24:23;;;;;;;;;;;;;;;;;;5086277;28;4645;-62
2023/06/30 13:26:49;;;;;;;;;;;;;;;;;;5076602;28;4897;-61
2023/06/30 13:29:14;;;;;;;;;;;;;;;;;;5070287;28;4500;-60
2023/06/30 13:31:39;;;;;;;;;;;;;;;;;;5087267;28;1677;-61
2023/06/30 13:34:04;;;;;;;;;;;;;;;;;;5085573;28;5049;-61
2023/06/30 13:36:30;;;;;;;;;;;;;;;;;;5082523;28;5434;-63
2023/06/30 13:38:56;;;;;;;;;;;;;;;;;;5077149;28;5067;-66
2023/06/30 13:41:22;;;;;;;;;;;;;;;;;;5085886;28;5015;-67
2023/06/30 13:43:47;;;;;;;;;;;;;;;;;;5085419;28;2150;-67
2023/06/30 13:46:12;;;;;;;;;;;;;;;;;;5081436;28;4668;-71
2023/06/30 13:48:38;;;;;;;;;;;;;;;;;;5083894;28;5068;-69
2023/06/30 13:51:03;;;;;;;;;;;;;;;;;;5066167;28;4492;-66
2023/06/30 13:53:29;;;;;;;;;;;;;;;;;;5086081;28;4491;-59
2023/06/30 13:58:29;;;;;;;;;;;;;;;;;;5569971;22;2352;-64
2023/06/30 14:00:54;;;;;;;;;;;;;;;;;;5043733;28;4583;-66
2023/06/30 14:03:20;;;;;;;;;;;;;;;;;;5045413;28;4952;-69
2023/06/30 14:05:48;;;;;;;;;;;;;;;;;;5046427;28;4501;-63
2023/06/30 14:08:14;;;;;;;;;;;;;;;;;;5044934;28;4474;-65
2023/06/30 14:10:39;;;;;;;;;;;;;;;;;;5046967;28;3284;-64
2023/06/30 14:13:04;;;;;;;;;;;;;;;;;;5062074;28;5154;-62
2023/06/30 14:15:30;;;;;;;;;;;;;;;;;;5046348;28;4901;-64
2023/06/30 14:17:56;;;;;;;;;;;;;;;;;;5048774;28;5127;-64
2023/06/30 14:20:21;;;;;;;;;;;;;;;;;;5046491;28;5252;-64
2023/06/30 14:22:46;;;;;;;;;;;;;;;;;;5047276;28;948;-60
2023/06/30 14:25:21;;;;;;;;;;;;;;;;;;5046733;28;5052;-60
2023/06/30 14:27:46;;;;;;;;;;;;;;;;;;5060057;28;4634;-59
2023/06/30 14:30:12;;;;;;;;;;;;;;;;;;5046276;28;4706;-54
2023/06/30 14:32:37;;;;;;;;;;;;;;;;;;5044814;28;5134;-60
2023/06/30 14:35:03;;;;;;;;;;;;;;;;;;5046416;28;4915;-62
2023/06/30 14:37:28;;;;;;;;;;;;;;;;;;5047178;28;1204;-60
2023/06/30 14:39:55;;;;;;;;;;;;;;;;;;5045463;28;5235;-59
2023/06/30 14:42:20;;;;;;;;;;;;;;;;;;5046556;28;5041;-60
2023/06/30 14:44:45;;;;;;;;;;;;;;;;;;5044607;28;4708;-59
2023/06/30 14:47:10;;;;;;;;;;;;;;;;;;5046743;28;5004;-65
2023/06/30 14:49:36;;;;;;;;;;;;;;;;;;5046316;28;3269;-62
2023/06/30 14:52:01;;;;;;;;;;;;;;;;;;5046798;28;5179;-60
2023/06/30 14:54:26;;;;;;;;;;;;;;;;;;5046807;28;5148;-65
2023/06/30 14:56:52;;;;;;;;;;;;;;;;;;5046907;28;5077;-57
2023/06/30 14:59:18;;;;;;;;;;;;;;;;;;5043427;28;5057;-63
2023/06/30 15:01:43;;;;;;;;;;;;;;;;;;5043105;28;3626;-62
2023/06/30 15:04:08;;;;;;;;;;;;;;;;;;5041369;28;5049;-57
2023/06/30 15:06:33;;;;;;;;;;;;;;;;;;5045851;28;4468;-73
2023/06/30 15:08:59;;;;;;;;;;;;;;;;;;5041427;28;5198;-69
2023/06/30 15:11:24;;;;;;;;;;;;;;;;;;5044987;28;5086;-69
2023/06/30 15:13:49;;;;;;;;;;;;;;;;;;5042699;28;3405;-69
2023/06/30 15:16:14;;;;;;;;;;;;;;;;;;5041670;28;4949;-69
2023/06/30 15:18:40;;;;;;;;;;;;;;;;;;5042831;28;4512;-69
2023/06/30 15:21:05;;;;;;;;;;;;;;;;;;5042505;28;4780;-61
2023/06/30 15:23:30;;;;;;;;;;;;;;;;;;5057805;28;4526;-59
2023/06/30 15:25:55;;;;;;;;;;;;;;;;;;5046223;28;3182;-62
2023/06/30 15:28:21;;;;;;;;;;;;;;;;;;5045993;28;4991;-62
2023/06/30 15:30:46;;;;;;;;;;;;;;;;;;5049799;28;4629;-63
2023/06/30 15:33:11;;;;;;;;;;;;;;;;;;5049732;28;5016;-63
2023/06/30 15:35:36;;;;;;;;;;;;;;;;;;5048915;28;5321;-62
2023/06/30 15:38:02;;;;;;;;;;;;;;;;;;5049586;28;5149;-62
2023/06/30 15:40:27;;;;;;;;;;;;;;;;;;5030552;28;1105;-63
2023/06/30 15:42:52;;;;;;;;;;;;;;;;;;5048333;28;4483;-58
2023/06/30 15:45:18;;;;;;;;;;;;;;;;;;5047481;28;4644;-61
2023/06/30 15:47:43;;;;;;;;;;;;;;;;;;5046707;28;5156;-68
2023/06/30 15:50:08;;;;;;;;;;;;;;;;;;5044850;28;5054;-63
2023/06/30 15:52:35;;;;;;;;;;;;;;;;;;5044963;28;3359;-71
2023/06/30 15:55:13;;;;;;;;;;;;;;;;;;5042551;28;5067;-61
2023/06/30 15:57:38;;;;;;;;;;;;;;;;;;5046169;28;5488;-63
2023/06/30 16:00:04;;;;;;;;;;;;;;;;;;5047652;28;4685;-66
2023/06/30 16:02:29;;;;;;;;;;;;;;;;;;5049264;28;4468;-66
2023/06/30 16:04:55;;;;;;;;;;;;;;;;;;5050622;28;3071;-66
2023/06/30 16:07:20;;;;;;;;;;;;;;;;;;5047769;28;4889;-62
2023/06/30 16:09:45;;;;;;;;;;;;;;;;;;5048163;28;4924;-67
2023/06/30 16:12:11;;;;;;;;;;;;;;;;;;5045800;28;4832;-67
2023/06/30 16:14:36;;;;;;;;;;;;;;;;;;5043744;28;4552;-66
2023/06/30 16:17:01;;;;;;;;;;;;;;;;;;5046336;28;4930;-69
2023/06/30 16:19:26;;;;;;;;;;;;;;;;;;5062508;28;3179;-64
2023/06/30 16:21:52;;;;;;;;;;;;;;;;;;5046897;28;4435;-63
2023/06/30 16:24:17;;;;;;;;;;;;;;;;;;5025728;28;5009;-63
2023/06/30 16:26:45;;;;;;;;;;;;;;;;;;5047406;28;4977;-63
2023/06/30 16:29:10;;;;;;;;;;;;;;;;;;5048298;28;5060;-63
2023/06/30 16:31:36;;;;;;;;;;;;;;;;;;5048016;28;1405;-62
2023/06/30 16:34:04;;;;;;;;;;;;;;;;;;5047433;28;4923;-63
2023/06/30 16:36:29;;;;;;;;;;;;;;;;;;5047650;28;4601;-62
2023/06/30 16:38:54;;;;;;;;;;;;;;;;;;5047462;28;4462;-63
2023/06/30 16:41:19;;;;;;;;;;;;;;;;;;5043555;28;4867;-64
2023/06/30 16:43:45;;;;;;;;;;;;;;;;;;5050004;28;1157;-71
2023/06/30 16:46:10;;;;;;;;;;;;;;;;;;5049214;28;4424;-62
2023/06/30 16:48:35;;;;;;;;;;;;;;;;;;5049509;28;4958;-63
2023/06/30 16:51:00;;;;;;;;;;;;;;;;;;5052041;28;5162;-64
2023/06/30 16:53:26;;;;;;;;;;;;;;;;;;5047255;28;4932;-62
2023/06/30 16:55:52;;;;;;;;;;;;;;;;;;5049873;28;3346;-61